x

8454000 - Providence, Ri (foxr1) Weather Station

8:54 - Tue 29th Jul 2014 All times are EDT. -4 hours from GMT.

  • Wind
    6mph, 8mph gusts
  • Sea Temp 74°f
  • Air Temp 72°f
  • Sea Pressure 1012.4mb
  • 8454000 - Providence, Ri
  • 8454000 - Providence, Ri

More Historic Weather Station data

Upgrade to MSW Pro to gain access to the past 30 days of data for over 8000 Wavebouys and Weather Stations around the globe.

Join Pro

Comparision Forecast

View Surf forecast
   
mar. 07/29 8:54 6 8 mph 1012.4mb 74f 72f
8:48 6 10 mph 1012.3mb 74f 73f
8:42 7 9 mph 1012.3mb 74f 73f
8:36 6 8 mph 1012.2mb 74f 73f
8:30 6 10 mph 1012.2mb 74f 73f
8:24 7 10 mph 1012.2mb 74f 73f
8:18 2 8 mph 1012.2mb 74f 73f
8:12 6 9 mph 1012.2mb 74f 73f
8:06 6 9 mph 1012.1mb 74f 73f
8:00 7 9 mph 1012.1mb 74f 74f
7:54 8 11 mph 1012mb 74f 74f
7:48 6 10 mph 1012mb 74f 74f
7:42 8 9 mph 1012.1mb 74f 74f
7:36 5 8 mph 1012mb 74f 74f
7:30 8 11 mph 1012mb 74f 74f
7:24 6 11 mph 1012mb 74f 75f
7:18 6 11 mph 1011.9mb 74f 75f
7:12 10 11 mph 1011.9mb 74f 75f
7:06 5 10 mph 1011.8mb 75f 75f
7:00 10 15 mph 1011.8mb 75f 76f
6:54 13 15 mph 1011.7mb 75f 76f
6:48 9 14 mph 1011.5mb 75f 76f
6:42 6 13 mph 1011.5mb 75f 76f
6:36 11 14 mph 1011.4mb 75f 76f
6:30 10 14 mph 1011.3mb 75f 76f
6:24 10 13 mph 1011.2mb 75f 76f
6:18 10 14 mph 1011.1mb 75f 76f
6:12 8 13 mph 1011mb 75f 76f
6:06 8 13 mph 1010.9mb 75f 77f
6:00 13 16 mph 1010.8mb 75f 77f
5:54 9 14 mph 1010.7mb 75f 77f
5:48 7 13 mph 1010.7mb 75f 77f
5:42 9 13 mph 1010.6mb 75f 77f
5:36 10 16 mph 1010.6mb 75f 77f
5:30 10 15 mph 1010.6mb 75f 77f
5:24 9 16 mph 1010.6mb 75f 77f
5:18 11 16 mph 1010.5mb 75f 77f
5:12 8 16 mph 1010.5mb 75f 78f
5:06 13 16 mph 1010.4mb 75f 78f
5:00 9 17 mph 1010.4mb 75f 78f
4:54 10 16 mph 1010.3mb 75f 78f
4:48 9 15 mph 1010.2mb 75f 79f
4:42 10 15 mph 1010.2mb 75f 79f
4:36 10 14 mph 1010.1mb 75f 78f
4:30 10 15 mph 1010mb 75f 79f
4:24 9 14 mph 1010mb 75f 79f
4:18 10 17 mph 1010mb 75f 79f
4:12 9 15 mph 1009.9mb 75f 78f
4:06 10 16 mph 1009.8mb 75f 79f
4:00 5 15 mph 1009.7mb 75f 79f
3:54 7 14 mph 1009.6mb 75f 78f
3:48 10 15 mph 1009.6mb 75f 78f
3:42 10 14 mph 1009.6mb 75f 78f
3:36 6 10 mph 1009.5mb 75f 78f
3:30 7 10 mph 1009.6mb 75f 79f
3:24 6 11 mph 1009.5mb 75f 78f
3:18 10 14 mph 1009.5mb 75f 78f
3:12 8 13 mph 1009.4mb 75f 78f
3:06 9 14 mph 1009.4mb 75f 79f
3:00 5 8 mph 1009.3mb 75f 78f
2:54 8 11 mph 1009.3mb 75f 78f
2:48 7 10 mph 1009.1mb 75f 78f
2:42 5 13 mph 1009.1mb 75f 78f
2:36 5 10 mph 1009.1mb 75f 78f
2:30 6 8 mph 1009mb 75f 78f
2:24 6 9 mph 1009mb 75f 77f
2:18 6 10 mph 1008.9mb 75f 78f
2:12 6 9 mph 1008.9mb 75f 77f
2:06 9 11 mph 1008.8mb 75f 77f
2:00 5 11 mph 1008.8mb 74f 77f
1:54 9 13 mph 1008.8mb 74f 78f
1:48 5 11 mph 1008.8mb 74f 78f
1:42 8 13 mph 1008.8mb 75f 78f
1:36 8 14 mph 1008.8mb 75f 78f
1:30 7 15 mph 1008.7mb 75f 77f
1:24 6 13 mph 1008.7mb 75f 78f
1:18 7 13 mph 1008.7mb 74f 78f
1:12 7 11 mph 1008.6mb 74f 78f
1:06 3 9 mph 1008.6mb 74f 77f
1:00 9 11 mph 1008.6mb 74f 76f
12:54 8 13 mph 1008.6mb 74f 77f
12:48 9 11 mph 1008.5mb 74f 78f
12:42 3 8 mph 1008.5mb 74f 77f
12:36 6 11 mph 1008.5mb 74f 77f
12:30 7 11 mph 1008.4mb 74f 76f
12:24 5 13 mph 1008.4mb 74f 75f
12:18 10 14 mph 1008.3mb 74f 76f
12:12 9 13 mph 1008.3mb 74f 76f
12:06 7 13 mph 1008.3mb 74f 75f
12:00 3 10 mph 1008.3mb 74f 75f
11:54 9 11 mph 1008.3mb 74f 75f
11:48 8 11 mph 1008.2mb 74f 75f
11:42 2 10 mph 1008.2mb 74f 76f
11:36 9 11 mph 1008.3mb 74f 76f
11:30 3 9 mph 1008.3mb 74f 76f
11:24 3 9 mph 1008.4mb 74f 74f
11:18 5 9 mph 1008.5mb 74f 74f
11:12 5 8 mph 1008.4mb 74f 74f
11:06 6 7 mph 1008.4mb 74f 73f
11:00 6 9 mph 1008.4mb 74f 73f
10:54 6 8 mph 1008.3mb 74f 73f
10:48 5 10 mph 1008.3mb 74f 73f
10:42 7 14 mph 1008.3mb 74f 73f
10:36 5 11 mph 1008.2mb 74f 73f
10:30 6 10 mph 1008.2mb 74f 72f
10:24 2 6 mph 1008.1mb 74f 73f
10:18 5 9 mph 1008.1mb 74f 72f
10:12 2 8 mph 1008.1mb 74f 72f
10:06 5 7 mph 1008mb 74f 71f
10:00 6 10 mph 1008.1mb 74f 71f
9:54 5 10 mph 1008.1mb 74f 72f
9:48 6 11 mph 1008mb 74f 70f
9:42 8 10 mph 1008mb 74f 70f
9:36 2 8 mph 1008mb 74f 71f
9:30  -  6 mph 1008mb 74f 71f
9:24 7 9 mph 1007.9mb 74f 70f
9:18 3 8 mph 1007.9mb 74f 70f
9:12 5 10 mph 1007.9mb 74f 70f
9:06 7 11 mph 1007.8mb 74f 70f
9:00 6 14 mph 1007.8mb 74f 69f
8:54 10 13 mph 1007.8mb 74f 69f
8:48 7 11 mph 1007.7mb 74f 69f
8:42 10 14 mph 1007.7mb 74f 69f
8:36 9 13 mph 1007.7mb 74f 69f
8:30 8 11 mph 1007.7mb 74f 69f
8:24 9 15 mph 1007.6mb 74f 67f
8:18 7 9 mph 1007.6mb 74f 68f
8:12 8 10 mph 1007.5mb 74f 67f
8:06 7 10 mph 1007.4mb 74f 67f
8:00 8 11 mph 1007.4mb 74f 67f
7:54 5 9 mph 1007.3mb 74f 67f
7:48 8 13 mph 1007.3mb 74f 67f
7:42 10 15 mph 1007.1mb 74f 67f
7:36 10 14 mph 1007mb 74f 67f
7:30 9 11 mph 1007mb 74f 68f
7:24 7 11 mph 1007mb 74f 67f
7:18 8 13 mph 1006.8mb 74f 67f
7:12 9 13 mph 1006.7mb 74f 67f
7:06 8 14 mph 1006.6mb 74f 67f
7:00 7 11 mph 1006.5mb 74f 67f
6:54 9 13 mph 1006.4mb 74f 66f
6:48 8 13 mph 1006.2mb 74f 66f
6:42 6 10 mph 1006mb 74f 66f
6:36 8 13 mph 1005.9mb 74f 66f
6:30 5 7 mph 1005.8mb 74f 66f
6:24 6 8 mph 1005.8mb 74f 65f
6:18 3 9 mph 1005.8mb 74f 65f
6:12 6 9 mph 1005.7mb 74f 65f
6:06 3 9 mph 1005.8mb 75f 65f
6:00 7 10 mph 1005.7mb 75f 65f
5:54 3 8 mph 1005.7mb 75f 65f
5:48 6 8 mph 1005.7mb 75f 65f
5:42 5 11 mph 1005.6mb 75f 65f
5:36 6 9 mph 1005.6mb 75f 64f
5:30 5 8 mph 1005.6mb 75f 65f
5:24 6 8 mph 1005.5mb 75f 65f
5:18 6 9 mph 1005.4mb 75f 65f
5:12 6 9 mph 1005.3mb 74f 65f
5:06 6 8 mph 1005.1mb 75f 65f
5:00 3 7 mph 1005mb 75f 65f
4:54 2 8 mph 1004.9mb 75f 65f
4:48 6 9 mph 1004.7mb 75f 65f
4:42 5 7 mph 1004.6mb 75f 65f
4:36 6 7 mph 1004.6mb 75f 65f
4:30 5 7 mph 1004.5mb 75f 65f
4:24 5 8 mph 1004.4mb 75f 65f
4:18 6 10 mph 1004.3mb 75f 66f
4:12 7 9 mph 1004.2mb 75f 66f
4:06 8 11 mph 1004.2mb 75f 66f
4:00 6 10 mph 1004mb 75f 66f
3:54 7 9 mph 1004mb 75f 66f
3:48 5 9 mph 1003.9mb 75f 66f
3:42 5 10 mph 1003.9mb 75f 66f
3:36 6 9 mph 1003.7mb 75f 67f
3:30 6 9 mph 1003.6mb 75f 67f
3:24 7 9 mph 1003.5mb 75f 67f
3:18 6 10 mph 1003.4mb 75f 67f
3:12 7 10 mph 1003.3mb 75f 67f
3:06 7 8 mph 1003.2mb 75f 67f
3:00 6 13 mph 1003.1mb 75f 68f
2:54 6 9 mph 1003mb 75f 68f
2:48 8 10 mph 1002.9mb 75f 68f
2:42 9 13 mph 1002.9mb 75f 68f
2:36 7 11 mph 1002.9mb 75f 68f
2:30 9 11 mph 1002.8mb 75f 69f
2:24 7 10 mph 1002.7mb 75f 69f
2:18 6 10 mph 1002.7mb 75f 69f
2:12 9 13 mph 1002.7mb 75f 69f
2:06 8 11 mph 1002.6mb 75f 69f
2:00 7 10 mph 1002.6mb 75f 69f
1:54 9 13 mph 1002.5mb 75f 69f
1:48 6 8 mph 1002.3mb 75f 69f
1:42 6 8 mph 1002.2mb 75f 69f
1:36 7 10 mph 1002mb 75f 69f
1:30 7 10 mph 1001.9mb 75f 69f
1:24 8 13 mph 1001.8mb 75f 69f
1:18 7 15 mph 1001.6mb 75f 69f
1:12 8 15 mph 1001.5mb 75f 69f
1:06 10 15 mph 1001.3mb 75f 69f
1:00 9 15 mph 1001.2mb 75f 69f
12:54 13 18 mph 1001mb 75f 70f
12:48 10 14 mph 1000.9mb 75f 70f
12:42 10 16 mph 1000.9mb 75f 70f
12:36 10 16 mph 1000.7mb 75f 70f
12:30 8 11 mph 1000.7mb 75f 70f
12:24 9 14 mph 1000.6mb 75f 71f
12:18 8 15 mph 1000.7mb 75f 71f
12:12 7 14 mph 1000.7mb 75f 71f
12:06 9 15 mph 1000.7mb 75f 71f
12:00 9 15 mph 1000.7mb 75f 71f
lun. 07/28 11:54 9 16 mph 1000.7mb 75f 71f
11:48 11 17 mph 1000.7mb 75f 71f
11:42 10 14 mph 1000.6mb 75f 71f
11:36 8 11 mph 1000.6mb 75f 72f
11:30 5 9 mph 1000.6mb 74f 72f
11:24 6 9 mph 1000.5mb 74f 72f
11:18 8 11 mph 1000.6mb 74f 72f
11:12 6 9 mph 1000.5mb 74f 73f
11:06 6 8 mph 1000.5mb 74f 73f
11:00 6 9 mph 1000.5mb 74f 73f
10:54 2 6 mph 1000.5mb 74f 73f
10:48 3 5 mph 1000.5mb 74f 73f
10:42 5 8 mph 1000.4mb 74f 74f
10:36 6 8 mph 1000.4mb 74f 74f
10:30 5 7 mph 1000.3mb 74f 74f
10:24 3 6 mph 1000.2mb 74f 74f
10:18 3 6 mph 1000.3mb 74f 74f
10:12 3 7 mph 1000.2mb 74f 74f
10:06 3 6 mph 1000.2mb 74f 75f
10:00 3 6 mph 1000.1mb 74f 75f
9:54 6 9 mph 1000.2mb 74f 75f
9:48 8 13 mph 1000.1mb 74f 76f
9:42 7 9 mph 1000mb 74f 76f
9:36 5 9 mph 999.9mb 74f 76f
9:30 6 10 mph 999.9mb 74f 76f
9:24 5 7 mph 999.8mb 74f 76f
9:18 3 5 mph 999.7mb 74f 76f
9:12 3 5 mph 999.7mb 74f 76f
9:06 5 8 mph 999.5mb 74f 76f
9:00 6 10 mph 999.4mb 74f 76f
8:54 6 11 mph 999.4mb 74f 76f
8:48 10 14 mph 999.4mb 74f 77f
8:42 3 10 mph 999.3mb 74f 77f
8:36 8 13 mph 999.2mb 74f 77f
8:30 6 10 mph 999.1mb 74f 77f
8:24 9 14 mph 999.1mb 74f 77f
8:18 8 14 mph 999.1mb 74f 77f
8:12 9 16 mph 999mb 74f 77f
8:06 11 16 mph 998.8mb 74f 78f
8:00 9 14 mph 998.7mb 74f 78f
7:54 10 23 mph 998.6mb 74f 78f
7:48 16 21 mph 998.6mb 74f 78f
7:42 11 21 mph 998.5mb 74f 78f
7:36 18 23 mph 998.4mb 74f 78f
7:30 10 18 mph 998.4mb 74f 79f
7:24 13 18 mph 998.4mb 74f 79f
7:18 16 25 mph 998.4mb 74f 79f
7:12 15 20 mph 998.4mb 74f 79f
7:06 14 21 mph 998.4mb 74f 79f
7:00 17 22 mph 998.4mb 74f 80f
6:54 15 24 mph 998.3mb 74f 80f
6:48 15 25 mph 998.2mb 74f 80f
6:42 13 23 mph 998.1mb 74f 81f
6:36 16 21 mph 997.9mb 74f 81f
6:30 14 22 mph 997.9mb 74f 81f
6:24 17 21 mph 997.9mb 74f 81f
6:18 14 21 mph 997.8mb 74f 81f
6:12 14 21 mph 997.7mb 74f 82f
6:06 15 22 mph 997.6mb 74f 82f
6:00 17 23 mph 997.7mb 74f 82f
5:54 17 24 mph 997.6mb 74f 82f
5:48 20 25 mph 997.6mb 74f 82f
5:42 15 20 mph 997.5mb 74f 82f
5:36 17 23 mph 997.4mb 74f 82f
5:30 10 17 mph 997.3mb 74f 82f
5:24 14 18 mph 997.3mb 74f 82f
5:18 14 17 mph 997.2mb 74f 82f
5:12 11 21 mph 997.2mb 74f 83f
5:06 13 21 mph 997.1mb 74f 82f
5:00 14 23 mph 997.1mb 75f 82f
4:54 10 18 mph 997.1mb 75f 83f
4:48 14 22 mph 997mb 75f 82f
4:42 14 23 mph 997.1mb 75f 83f
4:36 16 22 mph 997.2mb 75f 82f
4:30 11 21 mph 997.1mb 75f 83f
4:24 11 18 mph 997.2mb 75f 83f
4:18 14 17 mph 997.2mb 75f 82f
4:12 11 17 mph 997.3mb 75f 81f
4:06 14 17 mph 997.3mb 75f 78f
4:00 15 20 mph 997.3mb 75f 78f
3:54 14 17 mph 997.4mb 75f 78f
3:48 11 15 mph 997.4mb 75f 78f
3:42 11 14 mph 997.6mb 75f 77f
3:36 11 14 mph 997.7mb 75f 77f
3:30 10 15 mph 997.7mb 75f 77f
3:24 13 15 mph 997.8mb 75f 77f
3:18 11 16 mph 997.9mb 75f 77f
3:12 11 15 mph 997.9mb 75f 77f
3:06 10 14 mph 998.1mb 75f 79f
3:00 7 11 mph 998.1mb 75f 79f
2:54 6 10 mph 998.3mb 75f 79f
2:48 7 13 mph 998.3mb 75f 78f
2:42 9 13 mph 998.4mb 75f 78f
2:36 7 14 mph 998.3mb 74f 77f
2:30 13 16 mph 998.4mb 74f 76f
2:24 13 20 mph 998.4mb 74f 76f
2:18 15 18 mph 998.4mb 74f 75f
2:12 17 22 mph 998.5mb 74f 75f
2:06 14 20 mph 998.5mb 74f 76f
2:00 11 20 mph 998.5mb 74f 76f
1:54 13 17 mph 998.5mb 74f 77f
1:48 14 21 mph 998.6mb 74f 76f
1:42 17 21 mph 998.7mb 74f 76f
1:36 14 20 mph 998.7mb 74f 77f
1:30 14 23 mph 998.8mb 74f 78f
1:24 16 21 mph 998.8mb 74f 77f
1:18 17 20 mph 998.8mb 74f 78f
1:12 13 20 mph 998.9mb 74f 78f
1:06 16 20 mph 999mb 74f 78f
1:00 15 20 mph 999.1mb 74f 77f
12:54 11 18 mph 999.2mb 74f 76f
12:48 18 22 mph 999.3mb 74f 75f
12:42 15 24 mph 999.4mb 74f 75f
12:36 16 24 mph 999.5mb 74f 76f
12:30 20 23 mph 999.6mb 74f 76f
12:24 16 21 mph 999.6mb 74f 76f
12:18 17 22 mph 999.7mb 74f 76f
12:12 21 23 mph 999.7mb 74f 76f
12:06 16 20 mph 999.6mb 74f 76f
12:00 13 16 mph 999.8mb 74f 80f
11:54 14 21 mph 1000mb 74f 80f
11:48 13 15 mph 1000mb 74f 80f
11:42 9 17 mph 1000mb 74f 80f
11:36 13 18 mph 1000mb 74f 79f
11:30 9 16 mph 1000mb 74f 79f
11:24 13 17 mph 1000.2mb 74f 78f
11:18 9 17 mph 1000.3mb 74f 79f
11:12 11 18 mph 1000.4mb 74f 79f
11:06 13 18 mph 1000.5mb 74f 79f
11:00 10 17 mph 1000.5mb 74f 78f
10:54 14 18 mph 1000.5mb 74f 78f
10:48 13 17 mph 1000.5mb 74f 77f
10:42 15 21 mph 1000.5mb 74f 77f
10:36 11 20 mph 1000.5mb 74f 77f
10:30 13 20 mph 1000.5mb 74f 77f
10:24 10 22 mph 1000.5mb 74f 77f
10:18 13 22 mph 1000.5mb 74f 76f
10:12 18 24 mph 1000.5mb 74f 76f
10:06 13 20 mph 1000.4mb 74f 77f
10:00 13 18 mph 1000.4mb 74f 76f
9:54 14 22 mph 1000.2mb 74f 76f
9:48 16 22 mph 1000.3mb 74f 75f
9:42 17 25 mph 1000.3mb 74f 75f
9:36 17 23 mph 1000.3mb 74f 75f
9:30 15 22 mph 1000.4mb 74f 75f
9:24 13 20 mph 1000.5mb 74f 75f
9:18 11 18 mph 1000.5mb 74f 74f
9:12 14 20 mph 1000.4mb 74f 74f
9:06 14 21 mph 1000.3mb 74f 74f
9:00 15 24 mph 1000.3mb 74f 74f
8:54 15 21 mph 1000.4mb 74f 74f
8:48 11 17 mph 1000.4mb 74f 74f
8:42 9 21 mph 1000.3mb 74f 74f
8:36 16 22 mph 1000.3mb 74f 74f
8:30 18 26 mph 1000.3mb 74f 74f
8:24 15 25 mph 1000.2mb 74f 73f
8:18 14 25 mph 1000.2mb 74f 73f
8:12 23 31 mph 1000.1mb 74f 73f
8:06 17 25 mph 1000.2mb 74f 73f
8:00 21 24 mph 1000.4mb 74f 73f
7:54 15 20 mph 1000.4mb 74f 74f
7:48 13 18 mph 1000.6mb 74f 74f
7:42 11 20 mph 1000.7mb 74f 74f
7:36 15 17 mph 1000.8mb 74f 73f
7:30 11 17 mph 1000.9mb 74f 73f
7:24 13 16 mph 1001.1mb 74f 73f
7:18 14 16 mph 1001.1mb 74f 73f
7:12 14 16 mph 1000.9mb 74f 73f
7:06 11 17 mph 1000.9mb 74f 73f
7:00 10 13 mph 1001.1mb 74f 73f
6:54 13 16 mph 1001.5mb 74f 73f
6:48 11 16 mph 1001.3mb 74f 73f
6:42 13 15 mph 1001.9mb 74f 73f
6:36 11 16 mph 1001.9mb 74f 73f
6:30 10 15 mph 1001.8mb 74f 73f
6:24 10 17 mph 1001.9mb 74f 73f
6:18 10 15 mph 1001.7mb 74f 73f
6:12 10 16 mph 1001.7mb 74f 73f
6:06 10 16 mph 1001.8mb 74f 73f
6:00 11 15 mph 1001.9mb 74f 73f
5:54 10 14 mph 1002mb 74f 73f
5:48 13 16 mph 1002.1mb 74f 73f
5:42 13 17 mph 1002.3mb 74f 73f
5:36 10 16 mph 1002.1mb 74f 73f
5:30 13 16 mph 1002mb 74f 73f
5:24 13 16 mph 1002mb 74f 73f
5:18 9 13 mph 1001.9mb 74f 73f
5:12 9 14 mph 1002mb 74f 73f
5:06 10 13 mph 1002.3mb 74f 73f
5:00 8 10 mph 1002.4mb 74f 73f
4:54 6 9 mph 1002.5mb 74f 72f
4:48 6 10 mph 1002.6mb 74f 72f
4:42 8 11 mph 1002.6mb 74f 72f
4:36 9 13 mph 1002.7mb 74f 72f
4:30 11 14 mph 1002.7mb 74f 72f
4:24 9 15 mph 1002.7mb 74f 72f
4:18 13 16 mph 1002.6mb 74f 72f
4:12 9 11 mph 1002.5mb 74f 72f
4:06 6 8 mph 1002.3mb 74f 72f
4:00 7 11 mph 1002.4mb 74f 72f
3:54 7 10 mph 1002.5mb 74f 72f
3:48 6 11 mph 1002.7mb 74f 72f
3:42 9 13 mph 1002.9mb 74f 72f
3:36 8 11 mph 1002.9mb 74f 72f
3:30 8 11 mph 1002.8mb 74f 72f
3:24 6 8 mph 1002.7mb 74f 71f
3:18 6 9 mph 1002.8mb 74f 71f
3:12 6 8 mph 1002.9mb 74f 71f
3:06 6 8 mph 1002.9mb 74f 71f
3:00 6 7 mph 1003mb 74f 71f
2:54 6 7 mph 1002.9mb 74f 71f
2:48 5 8 mph 1003.1mb 74f 71f
2:42 5 7 mph 1003.3mb 74f 71f
2:36 5 6 mph 1003.2mb 74f 71f
2:30 5 8 mph 1003.3mb 74f 71f
2:24 3 7 mph 1003.5mb 74f 71f
2:18 6 8 mph 1003.5mb 74f 71f
2:12 8 11 mph 1003.5mb 74f 71f
2:06 8 10 mph 1003.7mb 74f 71f
2:00 7 9 mph 1003.8mb 74f 71f
1:54 6 10 mph 1003.8mb 74f 71f
1:48 7 9 mph 1003.8mb 74f 71f
1:42 6 10 mph 1003.8mb 74f 71f
1:36 6 11 mph 1003.9mb 74f 71f
1:30 8 10 mph 1004mb 74f 71f
1:24 8 11 mph 1004.1mb 74f 71f
1:18 7 9 mph 1004.2mb 74f 71f
1:12 6 9 mph 1004.3mb 74f 71f
1:06 11 15 mph 1004.5mb 74f 71f
1:00 13 16 mph 1004.4mb 74f 71f
12:54 10 15 mph 1004.6mb 74f 71f
12:48 14 20 mph 1004.7mb 74f 71f
12:42 9 14 mph 1004.5mb 74f 71f
12:36 11 13 mph 1004.4mb 74f 72f
12:30 8 10 mph 1004.4mb 74f 72f
12:24 6 8 mph 1004.5mb 74f 72f
12:18 6 8 mph 1004.6mb 74f 72f
12:12 6 8 mph 1004.7mb 74f 71f
12:06 6 7 mph 1004.7mb 74f 72f
12:00 5 6 mph 1004.9mb 74f 72f
dim. 07/27 11:54 6
mph
1004.8mb 74f 72f
11:48 5 7 mph 1004.7mb 74f 72f
11:42 6 7 mph 1004.7mb 74f 72f
11:36 5 6 mph 1004.7mb 74f 72f
11:30 5 6 mph 1004.7mb 74f 72f
11:24 3
mph
1004.8mb 74f 72f
11:18 2 5 mph 1004.8mb 74f 72f
11:12 3 5 mph 1004.7mb 74f 72f
11:06 3 6 mph 1004.7mb 74f 72f
11:00 3 6 mph 1005mb 74f 72f
10:54 3 5 mph 1005mb 74f 72f
10:48 3
mph
1005.1mb 74f 72f
10:42 3 6 mph 1005.2mb 74f 72f
10:36 3 5 mph 1005.1mb 74f 72f
10:30 3 6 mph 1005mb 74f 72f
10:24 6 7 mph 1005mb 74f 73f
10:18 7 8 mph 1004.9mb 74f 73f
10:12 7 8 mph 1004.9mb 74f 73f
10:06 5 6 mph 1005mb 74f 73f
10:00 5
mph
1004.9mb 74f 73f
9:54 5 6 mph 1004.9mb 74f 73f
9:48 5 6 mph 1004.8mb 74f 73f
9:42 5 7 mph 1004.8mb 74f 73f
9:36 3 6 mph 1004.8mb 73f 73f
9:30 5 7 mph 1004.9mb 73f 73f
9:24 8 11 mph 1004.9mb 73f 73f
9:18 10 14 mph 1004.5mb 73f 73f
9:12 9 11 mph 1004.3mb 73f 73f
9:06 7 10 mph 1004.1mb 73f 73f
9:00 8 11 mph 1004.1mb 73f 73f
8:54 8 11 mph 1004.1mb 73f 73f
8:48 9 13 mph 1004.4mb 73f 73f
8:42 9 11 mph 1004.5mb 73f 73f
8:36 9 11 mph 1004.7mb 73f 74f
8:30 8 10 mph 1005mb 73f 74f
8:24 7 10 mph 1005mb 73f 74f
8:18 8 11 mph 1004.9mb 73f 74f
8:12 9 14 mph 1004.8mb 73f 74f
8:06 10 11 mph 1004.9mb 73f 74f
8:00 10 13 mph 1004.8mb 73f 74f
7:54 9 13 mph 1004.8mb 73f 74f
7:48 9 13 mph 1005mb 73f 74f
7:42 8 13 mph 1004.7mb 73f 74f
7:36 8 14 mph 1004.5mb 73f 74f
7:30 9 15 mph 1004.2mb 73f 74f
7:24 5 11 mph 1004.4mb 73f 75f
7:18 8 11 mph 1004.5mb 74f 75f
7:12 8 11 mph 1004.6mb 74f 75f
7:06 9 15 mph 1004.6mb 74f 75f
7:00 10 16 mph 1004.6mb 74f 75f
6:54 10 14 mph 1004.7mb 74f 75f
6:48 11 14 mph 1004.8mb 74f 75f
6:42 10 15 mph 1004.9mb 74f 76f
6:36 10 14 mph 1004.6mb 74f 76f
6:30 9 14 mph 1004.9mb 74f 76f
6:24 8 15 mph 1004.8mb 74f 76f
6:18 11 15 mph 1004.9mb 74f 76f
6:12 11 15 mph 1004.8mb 74f 75f
6:06 11 16 mph 1004.8mb 73f 76f
6:00 13 17 mph 1004.9mb 73f 76f
5:54 13 16 mph 1004.8mb 74f 76f
5:48 13 16 mph 1004.7mb 74f 76f
5:42 11 15 mph 1004.7mb 74f 76f
5:36 13 16 mph 1004.6mb 74f 75f
5:30 13 16 mph 1004.8mb 74f 75f
5:24 11 14 mph 1004.9mb 74f 75f
5:18 8 15 mph 1005mb 74f 75f
5:12 9 14 mph 1005.1mb 74f 75f
5:06 13 17 mph 1005.2mb 74f 75f
5:00 8 14 mph 1005.4mb 74f 75f
4:54 9 13 mph 1005.5mb 74f 75f
4:48 10 15 mph 1005.5mb 74f 75f
4:42 8 14 mph 1005.5mb 74f 75f
4:36 11 17 mph 1005.5mb 74f 75f
4:30 10 14 mph 1005.5mb 74f 75f
4:24 10 15 mph 1005.5mb 74f 75f
4:18 11 16 mph 1005.6mb 74f 74f
4:12 8 15 mph 1005.7mb 74f 74f
4:06 7 13 mph 1005.8mb 74f 74f
4:00 10 14 mph 1005.8mb 74f 74f
3:54 15 18 mph 1005.9mb 74f 73f
3:48 7 16 mph 1005.9mb 74f 74f
3:42 10 17 mph 1005.9mb 74f 73f
3:36 11 16 mph 1006mb 74f 73f
3:30 10 15 mph 1006mb 74f 73f
3:24 8 14 mph 1006mb 74f 73f
3:18 10 14 mph 1006.1mb 74f 73f
3:12 10 16 mph 1006.2mb 74f 73f
3:06 10 16 mph 1006.3mb 74f 73f
3:00 13 15 mph 1006.3mb 74f 73f
2:54 14 20 mph 1006.3mb 74f 73f
2:48 9 17 mph 1006.3mb 74f 73f
2:42 10 17 mph 1006.2mb 74f 73f
2:36 13 24 mph 1006.1mb 74f 73f
2:30 15 21 mph 1006.1mb 74f 73f
2:24 10 17 mph 1006.4mb 74f 73f
2:18 11 17 mph 1006.7mb 74f 73f
2:12 10 16 mph 1006.9mb 74f 73f
2:06 9 14 mph 1006.9mb 74f 73f
2:00 10 14 mph 1006.9mb 74f 73f
1:54 10 14 mph 1007mb 74f 72f
1:48 10 17 mph 1007.2mb 74f 72f
1:42 10 18 mph 1007.3mb 74f 73f
1:36 13 18 mph 1007.3mb 74f 73f
1:30 14 20 mph 1007.2mb 74f 73f
1:24 15 20 mph 1007.2mb 74f 73f
1:18 13 16 mph 1007.2mb 74f 73f
1:12 11 18 mph 1007.4mb 74f 73f
1:06 14 17 mph 1007.5mb 74f 72f
1:00 10 17 mph 1007.6mb 74f 72f
12:54 10 15 mph 1007.5mb 74f 72f
12:48 9 16 mph 1007.6mb 74f 72f
12:42 11 17 mph 1007.8mb 74f 72f
12:36 13 18 mph 1007.7mb 74f 73f
12:30 14 18 mph 1007.6mb 74f 72f
12:24 11 16 mph 1007.8mb 74f 72f
12:18 11 16 mph 1007.9mb 74f 72f
12:12 13 16 mph 1008mb 74f 72f
12:06 11 14 mph 1008mb 74f 72f
12:00 10 13 mph 1008.2mb 74f 72f
11:54 10 14 mph 1008.4mb 74f 72f
11:48 7 14 mph 1008.5mb 74f 73f
11:42 9 15 mph 1008.6mb 74f 73f
11:36 13 17 mph 1008.7mb 74f 73f
11:30 10 16 mph 1008.7mb 74f 73f
11:24 11 17 mph 1008.7mb 74f 74f
11:18 14 20 mph 1008.7mb 74f 74f
11:12 14 20 mph 1008.6mb 74f 75f
11:06 14 24 mph 1008.6mb 74f 76f
11:00 15 22 mph 1008.6mb 74f 76f
10:54 10 15 mph 1008.6mb 74f 76f
10:48 10 16 mph 1008.5mb 74f 76f
10:42 13 20 mph 1008.5mb 74f 76f
10:36 11 17 mph 1008.6mb 74f 76f
10:30 10 18 mph 1008.6mb 74f 76f
10:24 11 17 mph 1008.6mb 74f 76f
10:18 11 17 mph 1008.6mb 74f 77f
10:12 11 17 mph 1008.5mb 74f 77f
10:06 11 18 mph 1008.5mb 73f 76f
10:00 10 16 mph 1008.5mb 73f 77f
9:54 11 14 mph 1008.6mb 73f 76f
9:48 9 18 mph 1008.8mb 73f 75f
9:42 14 20 mph 1008.8mb 73f 75f
9:36 13 17 mph 1008.8mb 73f 75f
9:30 10 15 mph 1008.8mb 73f 75f
9:24 8 16 mph 1009mb 73f 75f
9:18 11 16 mph 1009mb 73f 75f
9:12 8 15 mph 1009mb 73f 75f
9:06 13 17 mph 1009.1mb 73f 75f
9:00 10 15 mph 1009.2mb 73f 75f
8:54 11 15 mph 1009.3mb 73f 75f
8:48 8 10 mph 1009.3mb 73f 74f
8:42 7 11 mph 1009.2mb 73f 74f
8:36 8 10 mph 1009.2mb 73f 74f
8:30 7 10 mph 1009.2mb 73f 73f
8:24 8 13 mph 1009.3mb 73f 73f
8:18 8 11 mph 1009.4mb 73f 73f
8:12 7 11 mph 1009.3mb 73f 73f
8:06 7 11 mph 1009.3mb 73f 73f
8:00 7 11 mph 1009.4mb 73f 72f
7:54 6 13 mph 1009.5mb 73f 72f
7:48 7 11 mph 1009.5mb 73f 72f
7:42 5 8 mph 1009.5mb 73f 72f
7:36 2 13 mph 1009.5mb 73f 72f
7:30 7 9 mph 1009.4mb 73f 72f
7:24 8 13 mph 1009.5mb 73f 71f
7:18 7 11 mph 1009.6mb 73f 71f
7:12 8 11 mph 1009.7mb 73f 71f
7:06 8 10 mph 1009.7mb 73f 71f
7:00 6 8 mph 1009.8mb 73f 71f
6:54 6 8 mph 1009.8mb 74f 70f
6:48 6
mph
1009.8mb 74f 70f
6:42 5 7 mph 1009.8mb 74f 70f
6:36 6 7 mph 1009.9mb 74f 70f
6:30 3 7 mph 1010.1mb 74f 70f
6:24 5 6 mph 1010.2mb 74f 69f
6:18 5 8 mph 1010.1mb 74f 69f
6:12 6 8 mph 1010.1mb 74f 69f
6:06 5 7 mph 1010mb 74f 69f
6:00 6 9 mph 1010mb 74f 69f
5:54 6 7 mph 1010.1mb 74f 69f
5:48 6 8 mph 1010mb 74f 69f
5:42 5 7 mph 1009.9mb 74f 69f
5:36 5 8 mph 1010mb 74f 69f
5:30 7 9 mph 1010.2mb 74f 69f
5:24 7 8 mph 1010mb 74f 69f
5:18 5 7 mph 1009.9mb 74f 70f
5:12 6 7 mph 1010mb 74f 70f
5:06 2 3 mph 1010.1mb 74f 70f
5:00 3 6 mph 1010.2mb 74f 70f
4:54 3 5 mph 1010.2mb 74f 70f
4:48 5 8 mph 1010.3mb 74f 70f
4:42 3 6 mph 1010.5mb 74f 70f
4:36 3 8 mph 1010.6mb 74f 70f
4:30 3 6 mph 1010.7mb 74f 70f
4:24 5 6 mph 1010.7mb 74f 70f
4:18 5 7 mph 1010.7mb 74f 70f
4:12 5 7 mph 1010.6mb 74f 69f
4:06 3 7 mph 1010.5mb 74f 69f
4:00 3 8 mph 1010.7mb 74f 69f
3:54 3 8 mph 1010.7mb 74f 69f
3:48 3 8 mph 1010.6mb 74f 69f
3:42 6 8 mph 1010.7mb 74f 69f
3:36 3 6 mph 1010.6mb 74f 69f
3:30 5 7 mph 1010.6mb 74f 69f
3:24 3 6 mph 1010.5mb 74f 69f
3:18 5 7 mph 1010.6mb 74f 69f
3:12 5 7 mph 1010.6mb 74f 69f
3:06 3 6 mph 1010.8mb 74f 70f
3:00 3 6 mph 1010.9mb 74f 70f
2:54 5 7 mph 1011mb 74f 70f
2:48 2 7 mph 1011mb 74f 69f
2:42 3 9 mph 1011mb 74f 69f
2:36 5 9 mph 1011.1mb 74f 69f
2:30 7 9 mph 1011.2mb 74f 69f
2:24 6 8 mph 1011.2mb 74f 69f
2:18 7 10 mph 1011.2mb 74f 69f
2:12 7 9 mph 1011.2mb 74f 69f
2:06 6 9 mph 1011.2mb 74f 70f
2:00 6 8 mph 1011.3mb 74f 70f
1:54 6 9 mph 1011.4mb 74f 70f
1:48 5 10 mph 1011.5mb 74f 70f
1:42 7 10 mph 1011.4mb 74f 70f
1:36 6 8 mph 1011.5mb 74f 70f
1:30 6 8 mph 1011.5mb 74f 70f
1:24 7 11 mph 1011.6mb 74f 70f
1:18 6 9 mph 1011.8mb 74f 70f
1:12 8 11 mph 1011.8mb 74f 70f
1:06 7 10 mph 1012mb 74f 70f
1:00 6 13 mph 1012mb 74f 70f
12:54 8 10 mph 1012mb 74f 70f
12:48 8 11 mph 1012mb 74f 70f
12:42 8 14 mph 1012mb 74f 70f
12:36 7 10 mph 1012.1mb 74f 70f
12:30 6 9 mph 1012.2mb 74f 70f
12:24 5 7 mph 1012.1mb 74f 70f
12:18 5 8 mph 1012.1mb 74f 70f
12:12 6 8 mph 1012.1mb 74f 70f
12:06 2 6 mph 1012.1mb 74f 70f
12:00 3 6 mph 1012.1mb 74f 70f
sam. 07/26 11:54 5
mph
1012.2mb 74f 69f
11:48 5 7 mph 1012.2mb 74f 69f
11:42 5 7 mph 1012.3mb 74f 70f
11:36 5 8 mph 1012.4mb 74f 70f
11:30 5 8 mph 1012.4mb 74f 70f
11:24 6 8 mph 1012.4mb 74f 70f
11:18 6 9 mph 1012.5mb 74f 70f
11:12 6 7 mph 1012.5mb 74f 70f
11:06 5 7 mph 1012.5mb 74f 70f
11:00 5 7 mph 1012.6mb 74f 70f
10:54 5 8 mph 1012.5mb 74f 71f
10:48 6 8 mph 1012.6mb 74f 71f
10:42 6 8 mph 1012.6mb 74f 71f
10:36 6 8 mph 1012.7mb 74f 71f
10:30 5 8 mph 1012.7mb 74f 71f
10:24 6 8 mph 1012.7mb 74f 71f
10:18 5 8 mph 1012.7mb 74f 71f
10:12 6 8 mph 1012.8mb 74f 71f
10:06 5 7 mph 1012.8mb 74f 71f
10:00 5 7 mph 1012.8mb 74f 71f
9:54 5 8 mph 1012.7mb 74f 71f
9:48 6 8 mph 1012.7mb 74f 72f
9:42 6 11 mph 1012.6mb 74f 72f
9:36 7 11 mph 1012.6mb 74f 72f
9:30 7 10 mph 1012.6mb 74f 72f
9:24 7 10 mph 1012.6mb 74f 72f
9:18 8 11 mph 1012.6mb 74f 72f
9:12 7 13 mph 1012.6mb 74f 72f
9:06 8 13 mph 1012.5mb 74f 72f
9:00 8 10 mph 1012.5mb 74f 72f
8:54 5 11 mph 1012.4mb 74f 73f
8:48 7 13 mph 1012.4mb 74f 73f
8:42 9 14 mph 1012.3mb 74f 73f
8:36 11 15 mph 1012.3mb 73f 73f
8:30 10 15 mph 1012.2mb 73f 73f
8:24 7 13 mph 1012.2mb 73f 73f
8:18 10 14 mph 1012.2mb 73f 73f
8:12 9 16 mph 1012.1mb 73f 74f
8:06 13 16 mph 1012.1mb 73f 74f
8:00 11 15 mph 1012.1mb 73f 74f
7:54 8 15 mph 1012.1mb 73f 74f
7:48 10 15 mph 1012.2mb 73f 74f
7:42 10 15 mph 1012.2mb 73f 74f
7:36 10 16 mph 1012.1mb 73f 75f
7:30 8 13 mph 1012.1mb 73f 75f
7:24 8 13 mph 1012.1mb 73f 76f
7:18 9 15 mph 1012mb 73f 76f
7:12 8 14 mph 1012mb 73f 76f
7:06 10 15 mph 1012mb 73f 76f
7:00 10 16 mph 1012.1mb 73f 76f
6:54 13 20 mph 1012.1mb 73f 76f
6:48 10 18 mph 1012.1mb 73f 77f
6:42 13 18 mph 1012.1mb 73f 76f
6:36 11 18 mph 1012.1mb 73f 76f
6:30 11 17 mph 1012.1mb 73f 76f
6:24 13 16 mph 1012.1mb 73f 76f
6:18 11 17 mph 1012.2mb 73f 76f
6:12 10 17 mph 1012.2mb 73f 76f
6:06 14 20 mph 1012.2mb 73f 76f
6:00 7 16 mph 1012.2mb 73f 77f
5:54 13 16 mph 1012.2mb 74f 76f
5:48 10 17 mph 1012.3mb 74f 77f
5:42 11 17 mph 1012.3mb 73f 77f
5:36 11 16 mph 1012.3mb 73f 77f
5:30 11 18 mph 1012.4mb 73f 77f
5:24 11 17 mph 1012.5mb 73f 77f
5:18 10 18 mph 1012.5mb 74f 77f
5:12 11 21 mph 1012.5mb 74f 77f
5:06 11 16 mph 1012.6mb 74f 77f
5:00 8 21 mph 1012.6mb 74f 77f
4:54 13 18 mph 1012.7mb 74f 77f
4:48 11 17 mph 1012.6mb 74f 77f
4:42 13 21 mph 1012.6mb 74f 77f
4:36 13 22 mph 1012.6mb 74f 77f
4:30 11 17 mph 1012.6mb 74f 77f
4:24 10 20 mph 1012.5mb 74f 77f
4:18 11 21 mph 1012.4mb 74f 77f
4:12 11 18 mph 1012.4mb 74f 77f
4:06 13 17 mph 1012.4mb 73f 77f
4:00 10 18 mph 1012.4mb 73f 78f
3:54 11 16 mph 1012.4mb 73f 78f
3:48 10 18 mph 1012.5mb 73f 78f
3:42 15 18 mph 1012.5mb 73f 78f
3:36 13 17 mph 1012.5mb 74f 79f
3:30 9 17 mph 1012.5mb 74f 80f
3:24 10 18 mph 1012.5mb 74f 79f
3:18 13 21 mph 1012.4mb 74f 79f
3:12 17 24 mph 1012.5mb 74f 79f
3:06 15 25 mph 1012.6mb 74f 79f
3:00 14 24 mph 1012.5mb 74f 80f
2:54 11 20 mph 1012.5mb 74f 80f
2:48 13 20 mph 1012.5mb 74f 80f
2:42 14 24 mph 1012.5mb 74f 80f
2:36 13 17 mph 1012.5mb 74f 82f
2:30 13 17 mph 1012.5mb 74f 82f
2:24 13 18 mph 1012.5mb 74f 82f
2:18 14 18 mph 1012.5mb 74f 82f
2:12 17 21 mph 1012.5mb 74f 82f
2:06 10 14 mph 1012.6mb 74f 82f
2:00 7 14 mph 1012.7mb 74f 83f
1:54 10 15 mph 1012.8mb 74f 83f
1:48 13 16 mph 1012.8mb 74f 82f
1:42 13 18 mph 1012.9mb 74f 83f
1:36 14 21 mph 1012.9mb 74f 83f
1:30 13 18 mph 1012.9mb 74f 82f
1:24 8 16 mph 1013mb 74f 82f
1:18 13 20 mph 1013mb 74f 82f
1:12 11 21 mph 1013mb 74f 82f
1:06 15 21 mph 1013.1mb 74f 82f
1:00 13 22 mph 1013.1mb 73f 81f
12:54 18 23 mph 1013.2mb 73f 81f
12:48 15 22 mph 1013.3mb 73f 81f
12:42 16 20 mph 1013.3mb 73f 81f
12:36 14 21 mph 1013.4mb 73f 81f
12:30 14 21 mph 1013.4mb 73f 81f
12:24 15 20 mph 1013.5mb 73f 81f
12:18 15 20 mph 1013.5mb 73f 80f
12:12 11 23 mph 1013.6mb 73f 81f
12:06 13 21 mph 1013.6mb 73f 81f
12:00 14 17 mph 1013.7mb 73f 81f
11:54 14 18 mph 1013.8mb 73f 81f
11:48 6 11 mph 1013.8mb 74f 81f
11:42 9 13 mph 1013.9mb 73f 80f
11:36 6 10 mph 1013.9mb 73f 79f
11:30 8 13 mph 1014mb 73f 80f
11:24 7 9 mph 1014mb 73f 79f
11:18 9 13 mph 1014mb 73f 79f
11:12 5 13 mph 1014mb 73f 80f
11:06 5 13 mph 1014mb 73f 80f
11:00 5 10 mph 1014.1mb 73f 80f
10:54 7 14 mph 1014.1mb 73f 79f
10:48 9 14 mph 1014.2mb 73f 79f
10:42 9 13 mph 1014.2mb 73f 80f
10:36 7 14 mph 1014.2mb 73f 78f
10:30 7 10 mph 1014.2mb 73f 78f
10:24 9 11 mph 1014.3mb 73f 77f
10:18 7 10 mph 1014.4mb 73f 76f
10:12 7 11 mph 1014.4mb 73f 77f
10:06 8 11 mph 1014.4mb 73f 76f
10:00 7 10 mph 1014.4mb 73f 76f
9:54 7 8 mph 1014.4mb 73f 76f
9:48 6 10 mph 1014.5mb 73f 76f
9:42 7 10 mph 1014.6mb 73f 75f
9:36 7 13 mph 1014.6mb 73f 75f
9:30 8 10 mph 1014.6mb 73f 74f
9:24 6 10 mph 1014.6mb 73f 75f
9:18 8 10 mph 1014.7mb 73f 74f
9:12 7 10 mph 1014.8mb 73f 74f
9:06 5 11 mph 1014.8mb 73f 74f
9:00 9 14 mph 1014.9mb 73f 73f
8:54 7 9 mph 1014.9mb 73f 73f
8:48 7 8 mph 1014.9mb 73f 72f
8:42 8 15 mph 1015mb 73f 72f
8:36 7 11 mph 1015mb 73f 72f
8:30 10 15 mph 1015mb 73f 72f
8:24 13 16 mph 1015mb 73f 71f
8:18 11 14 mph 1015.1mb 73f 71f
8:12 8 13 mph 1015.1mb 73f 72f
8:06 9 13 mph 1015mb 73f 71f
8:00 7 9 mph 1015mb 73f 72f
7:54 8 11 mph 1014.9mb 73f 72f
7:48 6 10 mph 1014.9mb 73f 71f
7:42 6 11 mph 1014.8mb 73f 71f
7:36 8 13 mph 1014.9mb 73f 71f
7:30 6 14 mph 1014.8mb 73f 71f
7:24 7 10 mph 1014.8mb 73f 71f
7:18 7 9 mph 1014.7mb 73f 71f
7:12 7 10 mph 1014.8mb 73f 70f
7:06 5 8 mph 1014.8mb 73f 70f
7:00 5 6 mph 1014.7mb 73f 70f
6:54 5 8 mph 1014.8mb 73f 69f
6:48 5 6 mph 1014.8mb 73f 69f
6:42 6 8 mph 1014.8mb 73f 68f
6:36 5 7 mph 1014.8mb 73f 68f
6:30 5 8 mph 1014.7mb 73f 68f
6:24 3 8 mph 1014.7mb 73f 68f
6:18 6 8 mph 1014.7mb 73f 68f
6:12 3 8 mph 1014.7mb 73f 68f
6:06 3 7 mph 1014.7mb 73f 68f
6:00 3 7 mph 1014.6mb 73f 67f
5:54 3 6 mph 1014.6mb 73f 67f
5:48 3 6 mph 1014.7mb 73f 67f
5:42 3 8 mph 1014.7mb 73f 67f
5:36 5 7 mph 1014.7mb 73f 67f
5:30 3 6 mph 1014.8mb 73f 66f
5:24 2 5 mph 1014.7mb 74f 66f
5:18 3 6 mph 1014.7mb 74f 66f
5:12 3 6 mph 1014.7mb 73f 66f
5:06 5 6 mph 1014.5mb 73f 66f
5:00 3 6 mph 1014.5mb 73f 66f
4:54 3 5 mph 1014.4mb 73f 66f
4:48 3 5 mph 1014.4mb 73f 66f
4:42 3 5 mph 1014.3mb 74f 67f
4:36 2 5 mph 1014.4mb 74f 67f
4:30 2 3 mph 1014.4mb 74f 67f
4:24 1 3 mph 1014.3mb 74f 67f
4:18 2 3 mph 1014.2mb 74f 67f
4:12 1 3 mph 1014.3mb 74f 67f
4:06 2 3 mph 1014.4mb 74f 68f
4:00 2 3 mph 1014.4mb 74f 68f
3:54 3 5 mph 1014.4mb 74f 69f
3:48 2 6 mph 1014.5mb 74f 69f
3:42 3 6 mph 1014.4mb 74f 69f
3:36 5 8 mph 1014.4mb 74f 69f
3:30 6 8 mph 1014.4mb 74f 69f
3:24 5 8 mph 1014.4mb 74f 69f
3:18 5 8 mph 1014.4mb 74f 69f
3:12 3 7 mph 1014.4mb 74f 69f
3:06 5 7 mph 1014.3mb 74f 69f
3:00 6 8 mph 1014.3mb 74f 69f
2:54 6 8 mph 1014.3mb 74f 69f
2:48 2 5 mph 1014.3mb 74f 69f
2:42 3 5 mph 1014.3mb 74f 69f
2:36 3 6 mph 1014.4mb 74f 69f
2:30 3 8 mph 1014.4mb 74f 69f
2:24 7 8 mph 1014.4mb 74f 69f
2:18 6 9 mph 1014.5mb 74f 69f
2:12 7 9 mph 1014.6mb 74f 69f
2:06 7 10 mph 1014.5mb 74f 69f
2:00 7 9 mph 1014.5mb 74f 69f
1:54 7 10 mph 1014.6mb 74f 69f
1:48  -  mph 1014.5mb 74f 69f
1:42  -  mph 1014.6mb 74f 69f